sensor_id;sensor_type;location;lat;lon;timestamp;P1;durP1;ratioP1;P2;durP2;ratioP2
15748;SDS011;7976;52.526;13.326;2024-03-02T00:00:50;46.65;;;22.20;;
15748;SDS011;7976;52.526;13.326;2024-03-02T00:03:18;51.95;;;22.10;;
15748;SDS011;7976;52.526;13.326;2024-03-02T00:05:48;52.78;;;22.70;;
15748;SDS011;7976;52.526;13.326;2024-03-02T00:08:20;48.72;;;22.00;;
15748;SDS011;7976;52.526;13.326;2024-03-02T00:10:51;58.38;;;22.65;;
15748;SDS011;7976;52.526;13.326;2024-03-02T00:13:23;46.15;;;22.55;;
15748;SDS011;7976;52.526;13.326;2024-03-02T00:15:53;61.80;;;23.30;;
15748;SDS011;7976;52.526;13.326;2024-03-02T00:18:24;50.83;;;22.70;;
15748;SDS011;7976;52.526;13.326;2024-03-02T00:20:53;51.72;;;22.83;;
15748;SDS011;7976;52.526;13.326;2024-03-02T00:23:22;59.28;;;22.75;;
15748;SDS011;7976;52.526;13.326;2024-03-02T00:25:51;53.05;;;22.48;;
15748;SDS011;7976;52.526;13.326;2024-03-02T00:28:21;54.58;;;22.58;;
15748;SDS011;7976;52.526;13.326;2024-03-02T00:31:01;49.88;;;22.92;;
15748;SDS011;7976;52.526;13.326;2024-03-02T00:33:34;53.60;;;22.58;;
15748;SDS011;7976;52.526;13.326;2024-03-02T00:36:04;49.42;;;23.15;;
15748;SDS011;7976;52.526;13.326;2024-03-02T00:38:33;53.92;;;23.27;;
15748;SDS011;7976;52.526;13.326;2024-03-02T00:41:15;50.58;;;23.13;;
15748;SDS011;7976;52.526;13.326;2024-03-02T00:43:45;51.08;;;23.30;;
15748;SDS011;7976;52.526;13.326;2024-03-02T00:46:24;49.25;;;22.52;;
15748;SDS011;7976;52.526;13.326;2024-03-02T00:48:54;50.72;;;22.88;;
15748;SDS011;7976;52.526;13.326;2024-03-02T00:51:23;51.25;;;22.77;;
15748;SDS011;7976;52.526;13.326;2024-03-02T00:53:51;51.13;;;22.50;;
15748;SDS011;7976;52.526;13.326;2024-03-02T00:56:21;56.03;;;24.10;;
15748;SDS011;7976;52.526;13.326;2024-03-02T00:58:49;61.13;;;24.02;;
15748;SDS011;7976;52.526;13.326;2024-03-02T01:01:17;56.15;;;23.80;;
15748;SDS011;7976;52.526;13.326;2024-03-02T01:03:46;53.05;;;23.55;;
15748;SDS011;7976;52.526;13.326;2024-03-02T01:06:14;51.65;;;22.83;;
15748;SDS011;7976;52.526;13.326;2024-03-02T01:08:41;54.25;;;23.40;;
15748;SDS011;7976;52.526;13.326;2024-03-02T01:11:08;52.20;;;23.98;;
15748;SDS011;7976;52.526;13.326;2024-03-02T01:13:35;54.22;;;23.17;;
15748;SDS011;7976;52.526;13.326;2024-03-02T01:16:02;49.58;;;22.00;;
15748;SDS011;7976;52.526;13.326;2024-03-02T01:18:30;50.78;;;23.27;;
15748;SDS011;7976;52.526;13.326;2024-03-02T01:20:58;56.15;;;23.38;;
15748;SDS011;7976;52.526;13.326;2024-03-02T01:23:26;54.35;;;22.88;;
15748;SDS011;7976;52.526;13.326;2024-03-02T01:25:53;58.28;;;24.95;;
15748;SDS011;7976;52.526;13.326;2024-03-02T01:28:21;55.70;;;23.75;;
15748;SDS011;7976;52.526;13.326;2024-03-02T01:30:48;55.80;;;24.73;;
15748;SDS011;7976;52.526;13.326;2024-03-02T01:33:19;55.63;;;24.75;;
15748;SDS011;7976;52.526;13.326;2024-03-02T01:35:46;50.08;;;23.80;;
15748;SDS011;7976;52.526;13.326;2024-03-02T01:38:14;53.45;;;25.95;;
15748;SDS011;7976;52.526;13.326;2024-03-02T01:40:41;55.05;;;24.08;;
15748;SDS011;7976;52.526;13.326;2024-03-02T01:43:09;57.17;;;25.45;;
15748;SDS011;7976;52.526;13.326;2024-03-02T01:45:36;58.40;;;26.23;;
15748;SDS011;7976;52.526;13.326;2024-03-02T01:48:04;58.90;;;24.73;;
15748;SDS011;7976;52.526;13.326;2024-03-02T01:50:32;58.42;;;26.30;;
15748;SDS011;7976;52.526;13.326;2024-03-02T01:53:00;57.80;;;26.05;;
15748;SDS011;7976;52.526;13.326;2024-03-02T01:55:29;60.35;;;25.42;;
15748;SDS011;7976;52.526;13.326;2024-03-02T01:57:56;61.63;;;26.50;;
15748;SDS011;7976;52.526;13.326;2024-03-02T02:00:24;61.53;;;26.00;;
15748;SDS011;7976;52.526;13.326;2024-03-02T02:02:51;57.33;;;25.35;;
15748;SDS011;7976;52.526;13.326;2024-03-02T02:05:19;58.60;;;25.75;;
15748;SDS011;7976;52.526;13.326;2024-03-02T02:07:46;62.22;;;25.52;;
15748;SDS011;7976;52.526;13.326;2024-03-02T02:10:13;59.13;;;26.52;;
15748;SDS011;7976;52.526;13.326;2024-03-02T02:12:41;70.82;;;27.15;;
15748;SDS011;7976;52.526;13.326;2024-03-02T02:15:23;59.65;;;25.88;;
15748;SDS011;7976;52.526;13.326;2024-03-02T02:17:51;58.25;;;24.70;;
15748;SDS011;7976;52.526;13.326;2024-03-02T02:20:18;58.10;;;26.15;;
15748;SDS011;7976;52.526;13.326;2024-03-02T02:22:57;58.53;;;26.15;;
15748;SDS011;7976;52.526;13.326;2024-03-02T02:25:25;58.05;;;25.85;;
15748;SDS011;7976;52.526;13.326;2024-03-02T02:27:53;59.70;;;26.85;;
15748;SDS011;7976;52.526;13.326;2024-03-02T02:30:21;63.03;;;26.45;;
15748;SDS011;7976;52.526;13.326;2024-03-02T02:32:50;60.35;;;25.60;;
15748;SDS011;7976;52.526;13.326;2024-03-02T02:35:17;56.85;;;27.83;;
15748;SDS011;7976;52.526;13.326;2024-03-02T02:37:44;62.67;;;26.83;;
15748;SDS011;7976;52.526;13.326;2024-03-02T02:40:14;62.50;;;26.70;;
15748;SDS011;7976;52.526;13.326;2024-03-02T02:42:44;64.40;;;26.90;;
15748;SDS011;7976;52.526;13.326;2024-03-02T02:45:11;57.22;;;25.70;;
15748;SDS011;7976;52.526;13.326;2024-03-02T02:47:38;59.58;;;27.50;;
15748;SDS011;7976;52.526;13.326;2024-03-02T02:50:06;58.55;;;26.60;;
15748;SDS011;7976;52.526;13.326;2024-03-02T02:52:35;67.70;;;27.15;;
15748;SDS011;7976;52.526;13.326;2024-03-02T02:55:06;58.45;;;26.08;;
15748;SDS011;7976;52.526;13.326;2024-03-02T02:57:36;61.17;;;26.67;;
15748;SDS011;7976;52.526;13.326;2024-03-02T03:00:06;70.65;;;27.15;;
15748;SDS011;7976;52.526;13.326;2024-03-02T03:02:39;67.07;;;28.10;;
15748;SDS011;7976;52.526;13.326;2024-03-02T03:05:07;59.40;;;27.80;;
15748;SDS011;7976;52.526;13.326;2024-03-02T03:07:35;57.78;;;26.63;;
15748;SDS011;7976;52.526;13.326;2024-03-02T03:10:05;57.03;;;26.15;;
15748;SDS011;7976;52.526;13.326;2024-03-02T03:12:33;62.60;;;27.42;;
15748;SDS011;7976;52.526;13.326;2024-03-02T03:15:02;60.75;;;26.83;;
15748;SDS011;7976;52.526;13.326;2024-03-02T03:17:31;66.80;;;27.38;;
15748;SDS011;7976;52.526;13.326;2024-03-02T03:19:58;59.92;;;25.45;;
15748;SDS011;7976;52.526;13.326;2024-03-02T03:22:25;56.85;;;27.40;;
15748;SDS011;7976;52.526;13.326;2024-03-02T03:24:53;65.03;;;26.65;;
15748;SDS011;7976;52.526;13.326;2024-03-02T03:27:20;59.10;;;25.88;;
15748;SDS011;7976;52.526;13.326;2024-03-02T03:29:46;57.38;;;25.50;;
15748;SDS011;7976;52.526;13.326;2024-03-02T03:32:15;56.60;;;26.73;;
15748;SDS011;7976;52.526;13.326;2024-03-02T03:34:42;65.40;;;25.88;;
15748;SDS011;7976;52.526;13.326;2024-03-02T03:37:09;58.60;;;26.23;;
15748;SDS011;7976;52.526;13.326;2024-03-02T03:39:36;58.85;;;25.83;;
15748;SDS011;7976;52.526;13.326;2024-03-02T03:42:03;57.15;;;25.88;;
15748;SDS011;7976;52.526;13.326;2024-03-02T03:44:31;57.25;;;25.73;;
15748;SDS011;7976;52.526;13.326;2024-03-02T03:46:58;60.50;;;24.80;;
15748;SDS011;7976;52.526;13.326;2024-03-02T03:49:28;59.60;;;26.17;;
15748;SDS011;7976;52.526;13.326;2024-03-02T03:51:55;57.08;;;25.20;;
15748;SDS011;7976;52.526;13.326;2024-03-02T03:54:22;53.75;;;24.80;;
15748;SDS011;7976;52.526;13.326;2024-03-02T03:56:49;50.08;;;24.90;;
15748;SDS011;7976;52.526;13.326;2024-03-02T03:59:15;52.60;;;23.83;;
15748;SDS011;7976;52.526;13.326;2024-03-02T04:01:43;60.28;;;25.33;;
15748;SDS011;7976;52.526;13.326;2024-03-02T04:04:10;56.83;;;25.77;;
15748;SDS011;7976;52.526;13.326;2024-03-02T04:06:38;52.70;;;23.75;;
15748;SDS011;7976;52.526;13.326;2024-03-02T04:09:05;53.28;;;23.58;;
15748;SDS011;7976;52.526;13.326;2024-03-02T04:11:32;49.50;;;23.30;;
15748;SDS011;7976;52.526;13.326;2024-03-02T04:13:59;50.83;;;24.40;;
15748;SDS011;7976;52.526;13.326;2024-03-02T04:16:26;53.70;;;23.38;;
15748;SDS011;7976;52.526;13.326;2024-03-02T04:18:53;52.17;;;24.38;;
15748;SDS011;7976;52.526;13.326;2024-03-02T04:21:20;60.33;;;26.15;;
15748;SDS011;7976;52.526;13.326;2024-03-02T04:23:48;48.85;;;23.55;;
15748;SDS011;7976;52.526;13.326;2024-03-02T04:26:15;46.20;;;22.83;;
15748;SDS011;7976;52.526;13.326;2024-03-02T04:28:47;51.83;;;23.90;;
15748;SDS011;7976;52.526;13.326;2024-03-02T04:31:14;50.47;;;22.92;;
15748;SDS011;7976;52.526;13.326;2024-03-02T04:33:41;50.03;;;22.60;;
15748;SDS011;7976;52.526;13.326;2024-03-02T04:36:08;49.80;;;22.73;;
15748;SDS011;7976;52.526;13.326;2024-03-02T04:38:35;48.67;;;22.77;;
15748;SDS011;7976;52.526;13.326;2024-03-02T04:41:04;49.92;;;22.27;;
15748;SDS011;7976;52.526;13.326;2024-03-02T04:43:33;45.67;;;21.25;;
15748;SDS011;7976;52.526;13.326;2024-03-02T04:46:01;46.15;;;22.50;;
15748;SDS011;7976;52.526;13.326;2024-03-02T04:48:28;48.83;;;22.17;;
15748;SDS011;7976;52.526;13.326;2024-03-02T04:50:55;48.83;;;21.25;;
15748;SDS011;7976;52.526;13.326;2024-03-02T04:53:23;48.40;;;22.27;;
15748;SDS011;7976;52.526;13.326;2024-03-02T04:55:51;45.85;;;21.67;;
15748;SDS011;7976;52.526;13.326;2024-03-02T04:58:47;50.88;;;22.05;;
15748;SDS011;7976;52.526;13.326;2024-03-02T05:01:17;47.85;;;20.83;;
15748;SDS011;7976;52.526;13.326;2024-03-02T05:03:49;47.58;;;21.40;;
15748;SDS011;7976;52.526;13.326;2024-03-02T05:06:17;47.08;;;22.83;;
15748;SDS011;7976;52.526;13.326;2024-03-02T05:08:45;46.25;;;22.45;;
15748;SDS011;7976;52.526;13.326;2024-03-02T05:11:13;46.75;;;20.42;;
15748;SDS011;7976;52.526;13.326;2024-03-02T05:14:15;48.55;;;21.45;;
15748;SDS011;7976;52.526;13.326;2024-03-02T05:16:42;47.53;;;20.98;;
15748;SDS011;7976;52.526;13.326;2024-03-02T05:19:09;44.38;;;21.13;;
15748;SDS011;7976;52.526;13.326;2024-03-02T05:21:36;45.92;;;21.38;;
15748;SDS011;7976;52.526;13.326;2024-03-02T05:24:04;49.45;;;22.55;;
15748;SDS011;7976;52.526;13.326;2024-03-02T05:26:36;50.95;;;22.40;;
15748;SDS011;7976;52.526;13.326;2024-03-02T05:29:04;51.33;;;23.15;;
15748;SDS011;7976;52.526;13.326;2024-03-02T05:31:36;47.78;;;22.73;;
15748;SDS011;7976;52.526;13.326;2024-03-02T05:34:04;50.50;;;23.40;;
15748;SDS011;7976;52.526;13.326;2024-03-02T05:36:34;52.30;;;22.85;;
15748;SDS011;7976;52.526;13.326;2024-03-02T05:39:04;48.80;;;23.35;;
15748;SDS011;7976;52.526;13.326;2024-03-02T05:41:34;48.38;;;23.30;;
15748;SDS011;7976;52.526;13.326;2024-03-02T05:44:01;47.90;;;22.77;;
15748;SDS011;7976;52.526;13.326;2024-03-02T05:46:30;49.67;;;23.35;;
15748;SDS011;7976;52.526;13.326;2024-03-02T05:49:00;52.17;;;24.52;;
15748;SDS011;7976;52.526;13.326;2024-03-02T05:51:28;55.53;;;24.08;;
15748;SDS011;7976;52.526;13.326;2024-03-02T05:53:56;54.70;;;23.48;;
15748;SDS011;7976;52.526;13.326;2024-03-02T05:56:24;56.42;;;25.42;;
15748;SDS011;7976;52.526;13.326;2024-03-02T05:58:52;56.38;;;25.00;;
15748;SDS011;7976;52.526;13.326;2024-03-02T06:01:34;58.30;;;25.38;;
15748;SDS011;7976;52.526;13.326;2024-03-02T06:04:03;55.55;;;24.85;;
15748;SDS011;7976;52.526;13.326;2024-03-02T06:06:32;59.80;;;25.70;;
15748;SDS011;7976;52.526;13.326;2024-03-02T06:09:00;53.58;;;24.85;;
15748;SDS011;7976;52.526;13.326;2024-03-02T06:11:30;55.92;;;24.25;;
15748;SDS011;7976;52.526;13.326;2024-03-02T06:13:58;53.33;;;25.02;;
15748;SDS011;7976;52.526;13.326;2024-03-02T06:16:27;65.78;;;25.50;;
15748;SDS011;7976;52.526;13.326;2024-03-02T06:18:55;56.47;;;25.65;;
15748;SDS011;7976;52.526;13.326;2024-03-02T06:21:24;57.13;;;26.08;;
15748;SDS011;7976;52.526;13.326;2024-03-02T06:23:51;63.10;;;26.08;;
15748;SDS011;7976;52.526;13.326;2024-03-02T06:26:19;59.95;;;25.35;;
15748;SDS011;7976;52.526;13.326;2024-03-02T06:28:46;58.75;;;24.42;;
15748;SDS011;7976;52.526;13.326;2024-03-02T06:31:13;55.95;;;23.48;;
15748;SDS011;7976;52.526;13.326;2024-03-02T06:33:40;57.47;;;24.38;;
15748;SDS011;7976;52.526;13.326;2024-03-02T06:36:07;60.72;;;25.17;;
15748;SDS011;7976;52.526;13.326;2024-03-02T06:38:36;50.35;;;23.05;;
15748;SDS011;7976;52.526;13.326;2024-03-02T06:41:04;54.08;;;23.67;;
15748;SDS011;7976;52.526;13.326;2024-03-02T06:43:31;51.85;;;23.38;;
15748;SDS011;7976;52.526;13.326;2024-03-02T06:45:58;59.08;;;23.80;;
15748;SDS011;7976;52.526;13.326;2024-03-02T06:48:26;54.50;;;24.38;;
15748;SDS011;7976;52.526;13.326;2024-03-02T06:50:55;56.17;;;23.67;;
15748;SDS011;7976;52.526;13.326;2024-03-02T06:53:23;55.38;;;24.77;;
15748;SDS011;7976;52.526;13.326;2024-03-02T06:55:51;51.55;;;23.85;;
15748;SDS011;7976;52.526;13.326;2024-03-02T06:58:18;56.17;;;23.67;;
15748;SDS011;7976;52.526;13.326;2024-03-02T07:00:45;55.97;;;24.55;;
15748;SDS011;7976;52.526;13.326;2024-03-02T07:03:12;58.63;;;22.75;;
15748;SDS011;7976;52.526;13.326;2024-03-02T07:05:39;60.00;;;24.75;;
15748;SDS011;7976;52.526;13.326;2024-03-02T07:08:07;52.58;;;24.17;;
15748;SDS011;7976;52.526;13.326;2024-03-02T07:10:34;55.25;;;25.10;;
15748;SDS011;7976;52.526;13.326;2024-03-02T07:13:02;55.75;;;23.88;;
15748;SDS011;7976;52.526;13.326;2024-03-02T07:15:29;55.97;;;24.73;;
15748;SDS011;7976;52.526;13.326;2024-03-02T07:18:12;52.45;;;24.15;;
15748;SDS011;7976;52.526;13.326;2024-03-02T07:20:39;51.38;;;23.48;;
15748;SDS011;7976;52.526;13.326;2024-03-02T07:23:06;54.63;;;23.95;;
15748;SDS011;7976;52.526;13.326;2024-03-02T07:25:33;50.80;;;22.88;;
15748;SDS011;7976;52.526;13.326;2024-03-02T07:28:02;49.03;;;22.92;;
15748;SDS011;7976;52.526;13.326;2024-03-02T07:30:30;52.28;;;22.63;;
15748;SDS011;7976;52.526;13.326;2024-03-02T07:32:57;52.47;;;23.05;;
15748;SDS011;7976;52.526;13.326;2024-03-02T07:35:24;51.50;;;22.88;;
15748;SDS011;7976;52.526;13.326;2024-03-02T07:37:54;57.95;;;25.48;;
15748;SDS011;7976;52.526;13.326;2024-03-02T07:40:22;52.33;;;24.17;;
15748;SDS011;7976;52.526;13.326;2024-03-02T07:42:51;57.33;;;24.73;;
15748;SDS011;7976;52.526;13.326;2024-03-02T07:45:25;58.28;;;23.50;;
15748;SDS011;7976;52.526;13.326;2024-03-02T07:47:57;55.33;;;23.75;;
15748;SDS011;7976;52.526;13.326;2024-03-02T07:50:38;57.35;;;23.23;;
15748;SDS011;7976;52.526;13.326;2024-03-02T07:53:35;52.03;;;24.05;;
15748;SDS011;7976;52.526;13.326;2024-03-02T07:56:09;57.25;;;23.27;;
15748;SDS011;7976;52.526;13.326;2024-03-02T07:58:37;55.25;;;24.65;;
15748;SDS011;7976;52.526;13.326;2024-03-02T08:01:18;58.42;;;24.00;;
15748;SDS011;7976;52.526;13.326;2024-03-02T08:03:47;58.33;;;24.58;;
15748;SDS011;7976;52.526;13.326;2024-03-02T08:06:16;53.75;;;23.95;;
15748;SDS011;7976;52.526;13.326;2024-03-02T08:08:47;52.45;;;23.05;;
15748;SDS011;7976;52.526;13.326;2024-03-02T08:11:18;54.97;;;23.85;;
15748;SDS011;7976;52.526;13.326;2024-03-02T08:13:47;57.22;;;24.90;;
15748;SDS011;7976;52.526;13.326;2024-03-02T08:16:21;56.30;;;23.40;;
15748;SDS011;7976;52.526;13.326;2024-03-02T08:18:55;50.28;;;22.80;;
15748;SDS011;7976;52.526;13.326;2024-03-02T08:21:26;46.65;;;21.80;;
15748;SDS011;7976;52.526;13.326;2024-03-02T08:24:05;53.00;;;22.75;;
15748;SDS011;7976;52.526;13.326;2024-03-02T08:26:40;50.03;;;22.77;;
15748;SDS011;7976;52.526;13.326;2024-03-02T08:29:15;51.13;;;22.60;;
15748;SDS011;7976;52.526;13.326;2024-03-02T08:31:45;50.88;;;22.35;;
15748;SDS011;7976;52.526;13.326;2024-03-02T08:34:18;52.42;;;22.33;;
15748;SDS011;7976;52.526;13.326;2024-03-02T08:36:50;56.10;;;23.80;;
15748;SDS011;7976;52.526;13.326;2024-03-02T08:39:23;48.10;;;21.75;;
15748;SDS011;7976;52.526;13.326;2024-03-02T08:41:57;49.22;;;21.83;;
15748;SDS011;7976;52.526;13.326;2024-03-02T08:44:31;52.63;;;23.35;;
15748;SDS011;7976;52.526;13.326;2024-03-02T08:47:07;46.95;;;22.17;;
15748;SDS011;7976;52.526;13.326;2024-03-02T08:49:46;51.90;;;23.20;;
15748;SDS011;7976;52.526;13.326;2024-03-02T08:52:17;51.88;;;22.70;;
15748;SDS011;7976;52.526;13.326;2024-03-02T08:54:46;58.00;;;22.58;;
15748;SDS011;7976;52.526;13.326;2024-03-02T08:57:19;52.15;;;23.38;;
15748;SDS011;7976;52.526;13.326;2024-03-02T08:59:48;51.25;;;23.73;;
15748;SDS011;7976;52.526;13.326;2024-03-02T09:02:18;50.08;;;22.30;;
15748;SDS011;7976;52.526;13.326;2024-03-02T09:04:47;50.47;;;23.25;;
15748;SDS011;7976;52.526;13.326;2024-03-02T09:07:16;56.55;;;22.52;;
15748;SDS011;7976;52.526;13.326;2024-03-02T09:09:45;49.78;;;22.50;;
15748;SDS011;7976;52.526;13.326;2024-03-02T09:12:13;49.83;;;22.95;;
15748;SDS011;7976;52.526;13.326;2024-03-02T09:14:45;49.85;;;23.02;;
15748;SDS011;7976;52.526;13.326;2024-03-02T09:17:15;47.08;;;22.17;;
15748;SDS011;7976;52.526;13.326;2024-03-02T09:19:45;47.90;;;22.08;;
15748;SDS011;7976;52.526;13.326;2024-03-02T09:22:18;50.65;;;22.90;;
15748;SDS011;7976;52.526;13.326;2024-03-02T09:24:46;52.38;;;22.20;;
15748;SDS011;7976;52.526;13.326;2024-03-02T09:27:13;51.83;;;22.08;;
15748;SDS011;7976;52.526;13.326;2024-03-02T09:29:41;45.50;;;21.15;;
15748;SDS011;7976;52.526;13.326;2024-03-02T09:32:08;46.85;;;20.98;;
15748;SDS011;7976;52.526;13.326;2024-03-02T09:34:40;49.30;;;21.50;;
15748;SDS011;7976;52.526;13.326;2024-03-02T09:37:08;46.35;;;21.38;;
15748;SDS011;7976;52.526;13.326;2024-03-02T09:39:36;56.55;;;21.70;;
15748;SDS011;7976;52.526;13.326;2024-03-02T09:42:03;48.28;;;21.80;;
15748;SDS011;7976;52.526;13.326;2024-03-02T09:44:31;47.45;;;21.27;;
15748;SDS011;7976;52.526;13.326;2024-03-02T09:47:00;44.63;;;20.88;;
15748;SDS011;7976;52.526;13.326;2024-03-02T09:49:27;43.58;;;20.52;;
15748;SDS011;7976;52.526;13.326;2024-03-02T09:51:55;48.67;;;21.55;;
15748;SDS011;7976;52.526;13.326;2024-03-02T09:54:23;41.92;;;19.75;;
15748;SDS011;7976;52.526;13.326;2024-03-02T09:56:50;49.78;;;20.90;;
15748;SDS011;7976;52.526;13.326;2024-03-02T09:59:17;44.08;;;19.88;;
15748;SDS011;7976;52.526;13.326;2024-03-02T10:04:29;41.88;;;19.55;;
15748;SDS011;7976;52.526;13.326;2024-03-02T10:09:44;42.58;;;19.88;;
15748;SDS011;7976;52.526;13.326;2024-03-02T10:12:14;44.38;;;19.95;;
15748;SDS011;7976;52.526;13.326;2024-03-02T10:14:42;40.65;;;18.85;;
15748;SDS011;7976;52.526;13.326;2024-03-02T10:17:11;42.08;;;18.08;;
15748;SDS011;7976;52.526;13.326;2024-03-02T10:19:40;41.70;;;19.38;;
15748;SDS011;7976;52.526;13.326;2024-03-02T10:22:08;42.10;;;18.58;;
15748;SDS011;7976;52.526;13.326;2024-03-02T10:24:38;39.33;;;17.42;;
15748;SDS011;7976;52.526;13.326;2024-03-02T10:27:07;38.67;;;18.67;;
15748;SDS011;7976;52.526;13.326;2024-03-02T10:29:36;45.63;;;19.60;;
15748;SDS011;7976;52.526;13.326;2024-03-02T10:32:05;40.60;;;18.35;;
15748;SDS011;7976;52.526;13.326;2024-03-02T10:34:36;38.08;;;16.90;;
15748;SDS011;7976;52.526;13.326;2024-03-02T10:37:05;35.38;;;16.80;;
15748;SDS011;7976;52.526;13.326;2024-03-02T10:39:34;35.90;;;16.77;;
15748;SDS011;7976;52.526;13.326;2024-03-02T10:42:03;33.85;;;16.33;;
15748;SDS011;7976;52.526;13.326;2024-03-02T10:44:32;36.20;;;16.98;;
15748;SDS011;7976;52.526;13.326;2024-03-02T10:47:00;34.58;;;16.73;;
15748;SDS011;7976;52.526;13.326;2024-03-02T10:49:29;35.83;;;15.90;;
15748;SDS011;7976;52.526;13.326;2024-03-02T10:51:57;36.88;;;16.52;;
15748;SDS011;7976;52.526;13.326;2024-03-02T10:54:24;32.28;;;15.73;;
15748;SDS011;7976;52.526;13.326;2024-03-02T10:56:54;38.88;;;18.30;;
15748;SDS011;7976;52.526;13.326;2024-03-02T10:59:28;37.33;;;16.85;;
15748;SDS011;7976;52.526;13.326;2024-03-02T11:02:00;34.55;;;16.40;;
15748;SDS011;7976;52.526;13.326;2024-03-02T11:04:29;33.80;;;15.30;;
15748;SDS011;7976;52.526;13.326;2024-03-02T11:06:59;37.85;;;16.75;;
15748;SDS011;7976;52.526;13.326;2024-03-02T11:09:29;31.90;;;14.52;;
15748;SDS011;7976;52.526;13.326;2024-03-02T11:12:02;35.88;;;16.27;;
15748;SDS011;7976;52.526;13.326;2024-03-02T11:14:40;32.22;;;16.10;;
15748;SDS011;7976;52.526;13.326;2024-03-02T11:17:09;32.10;;;14.90;;
15748;SDS011;7976;52.526;13.326;2024-03-02T11:19:38;32.80;;;14.93;;
15748;SDS011;7976;52.526;13.326;2024-03-02T11:22:06;31.83;;;13.93;;
15748;SDS011;7976;52.526;13.326;2024-03-02T11:24:36;28.17;;;14.85;;
15748;SDS011;7976;52.526;13.326;2024-03-02T11:27:03;31.95;;;14.77;;
15748;SDS011;7976;52.526;13.326;2024-03-02T11:29:46;30.25;;;13.60;;
15748;SDS011;7976;52.526;13.326;2024-03-02T11:32:17;31.90;;;13.52;;
15748;SDS011;7976;52.526;13.326;2024-03-02T11:34:49;30.20;;;13.82;;
15748;SDS011;7976;52.526;13.326;2024-03-02T11:37:17;29.02;;;13.10;;
15748;SDS011;7976;52.526;13.326;2024-03-02T11:39:46;28.77;;;13.48;;
15748;SDS011;7976;52.526;13.326;2024-03-02T11:42:16;30.95;;;13.23;;
15748;SDS011;7976;52.526;13.326;2024-03-02T11:44:46;29.65;;;13.63;;
15748;SDS011;7976;52.526;13.326;2024-03-02T11:47:15;30.55;;;13.60;;
15748;SDS011;7976;52.526;13.326;2024-03-02T11:49:44;33.33;;;13.73;;
15748;SDS011;7976;52.526;13.326;2024-03-02T11:52:15;30.35;;;12.63;;
15748;SDS011;7976;52.526;13.326;2024-03-02T11:54:43;28.30;;;13.13;;
15748;SDS011;7976;52.526;13.326;2024-03-02T11:57:14;27.42;;;13.25;;
15748;SDS011;7976;52.526;13.326;2024-03-02T11:59:42;30.13;;;13.88;;
15748;SDS011;7976;52.526;13.326;2024-03-02T12:02:15;31.08;;;13.55;;
15748;SDS011;7976;52.526;13.326;2024-03-02T12:04:44;39.63;;;17.23;;
15748;SDS011;7976;52.526;13.326;2024-03-02T12:07:13;33.65;;;14.38;;
15748;SDS011;7976;52.526;13.326;2024-03-02T12:09:47;35.90;;;15.73;;
15748;SDS011;7976;52.526;13.326;2024-03-02T12:12:15;30.05;;;14.60;;
15748;SDS011;7976;52.526;13.326;2024-03-02T12:14:50;32.10;;;14.95;;
15748;SDS011;7976;52.526;13.326;2024-03-02T12:17:19;28.15;;;13.43;;
15748;SDS011;7976;52.526;13.326;2024-03-02T12:19:46;29.13;;;13.82;;
15748;SDS011;7976;52.526;13.326;2024-03-02T12:22:14;32.42;;;14.23;;
15748;SDS011;7976;52.526;13.326;2024-03-02T12:24:41;32.88;;;14.15;;
15748;SDS011;7976;52.526;13.326;2024-03-02T12:27:11;34.10;;;14.25;;
15748;SDS011;7976;52.526;13.326;2024-03-02T12:29:39;28.52;;;13.00;;
15748;SDS011;7976;52.526;13.326;2024-03-02T12:32:06;31.02;;;14.88;;
15748;SDS011;7976;52.526;13.326;2024-03-02T12:34:36;29.10;;;14.05;;
15748;SDS011;7976;52.526;13.326;2024-03-02T12:37:04;37.78;;;15.63;;
15748;SDS011;7976;52.526;13.326;2024-03-02T12:39:31;31.80;;;14.80;;
15748;SDS011;7976;52.526;13.326;2024-03-02T12:41:58;30.05;;;14.63;;
15748;SDS011;7976;52.526;13.326;2024-03-02T12:44:25;29.52;;;13.95;;
15748;SDS011;7976;52.526;13.326;2024-03-02T12:46:51;34.80;;;16.13;;
15748;SDS011;7976;52.526;13.326;2024-03-02T12:49:21;33.67;;;15.25;;
15748;SDS011;7976;52.526;13.326;2024-03-02T12:51:50;36.28;;;15.35;;
15748;SDS011;7976;52.526;13.326;2024-03-02T12:54:21;35.60;;;16.23;;
15748;SDS011;7976;52.526;13.326;2024-03-02T12:56:49;40.95;;;18.00;;
15748;SDS011;7976;52.526;13.326;2024-03-02T12:59:19;33.53;;;16.48;;
15748;SDS011;7976;52.526;13.326;2024-03-02T13:01:51;36.25;;;16.33;;
15748;SDS011;7976;52.526;13.326;2024-03-02T13:04:22;34.20;;;16.25;;
15748;SDS011;7976;52.526;13.326;2024-03-02T13:06:52;31.73;;;15.50;;
15748;SDS011;7976;52.526;13.326;2024-03-02T13:09:19;32.33;;;15.65;;
15748;SDS011;7976;52.526;13.326;2024-03-02T13:11:46;33.65;;;15.98;;
15748;SDS011;7976;52.526;13.326;2024-03-02T13:14:13;34.22;;;15.57;;
15748;SDS011;7976;52.526;13.326;2024-03-02T13:16:40;33.80;;;14.65;;
15748;SDS011;7976;52.526;13.326;2024-03-02T13:19:07;33.40;;;14.57;;
15748;SDS011;7976;52.526;13.326;2024-03-02T13:21:34;31.88;;;14.90;;
15748;SDS011;7976;52.526;13.326;2024-03-02T13:24:03;34.30;;;15.02;;
15748;SDS011;7976;52.526;13.326;2024-03-02T13:26:31;30.77;;;13.85;;
15748;SDS011;7976;52.526;13.326;2024-03-02T13:28:58;32.63;;;14.80;;
15748;SDS011;7976;52.526;13.326;2024-03-02T13:31:25;32.08;;;14.80;;
15748;SDS011;7976;52.526;13.326;2024-03-02T13:33:51;31.17;;;14.65;;
15748;SDS011;7976;52.526;13.326;2024-03-02T13:36:18;28.80;;;13.35;;
15748;SDS011;7976;52.526;13.326;2024-03-02T13:38:45;27.48;;;13.23;;
15748;SDS011;7976;52.526;13.326;2024-03-02T13:41:13;32.13;;;13.50;;
15748;SDS011;7976;52.526;13.326;2024-03-02T13:43:40;41.20;;;18.73;;
15748;SDS011;7976;52.526;13.326;2024-03-02T13:46:09;30.10;;;13.30;;
15748;SDS011;7976;52.526;13.326;2024-03-02T13:48:36;27.38;;;12.93;;
15748;SDS011;7976;52.526;13.326;2024-03-02T13:51:03;28.08;;;13.20;;
15748;SDS011;7976;52.526;13.326;2024-03-02T13:53:30;26.65;;;12.50;;
15748;SDS011;7976;52.526;13.326;2024-03-02T13:55:57;25.10;;;12.25;;
15748;SDS011;7976;52.526;13.326;2024-03-02T13:58:26;25.55;;;11.82;;
15748;SDS011;7976;52.526;13.326;2024-03-02T14:00:52;29.15;;;12.27;;
15748;SDS011;7976;52.526;13.326;2024-03-02T14:03:21;26.90;;;12.43;;
15748;SDS011;7976;52.526;13.326;2024-03-02T14:05:48;21.67;;;11.43;;
15748;SDS011;7976;52.526;13.326;2024-03-02T14:08:17;27.23;;;12.35;;
15748;SDS011;7976;52.526;13.326;2024-03-02T14:10:44;28.55;;;11.63;;
15748;SDS011;7976;52.526;13.326;2024-03-02T14:13:11;25.20;;;10.90;;
15748;SDS011;7976;52.526;13.326;2024-03-02T14:15:40;22.80;;;10.85;;
15748;SDS011;7976;52.526;13.326;2024-03-02T14:18:07;24.65;;;10.63;;
15748;SDS011;7976;52.526;13.326;2024-03-02T14:20:35;22.90;;;10.43;;
15748;SDS011;7976;52.526;13.326;2024-03-02T14:23:02;21.17;;;9.63;;
15748;SDS011;7976;52.526;13.326;2024-03-02T14:25:30;23.05;;;9.93;;
15748;SDS011;7976;52.526;13.326;2024-03-02T14:27:59;28.75;;;11.98;;
15748;SDS011;7976;52.526;13.326;2024-03-02T14:30:26;28.02;;;11.68;;
15748;SDS011;7976;52.526;13.326;2024-03-02T14:32:54;24.35;;;10.60;;
15748;SDS011;7976;52.526;13.326;2024-03-02T14:35:21;25.33;;;10.43;;
15748;SDS011;7976;52.526;13.326;2024-03-02T14:37:49;24.88;;;9.93;;